Portada
METAR-TAF:

METAR-TAF

Aeroports :

Malaca, Malàisia

latitud: 02-16N, longitud: 102-15E, altitud: 11 m

Observació

L'informe es va fer fa 57 minuts, a les 04:00 UTC
Vent 4 kt amb direcció variable
Temperatura 32°C
Humitat 67%
Pressió 1010 hPa
Visibilitat 10 km o més
Escasses núvols a una alçada de 2000 ft

METAR: WMKM 050400Z VRB04KT 9999 FEW020 32/25 Q1010

Hora: 12:57 (04:57 UTC)

Pronòstic

L'informe es va fer fa 5 hores i 57 minuts, a les 23:00 UTC
Pronòstic vàlid del 05 a les 00 UTC al 06 a les 00 UTC
Vent 5 kt del Sud/Sud-Est
Visibilitat 10 km o més
Escasses núvols a una alçada de 2000 ft
Evolucionant progressivament
l' 05 a les 14 UTC al 05 a les 16 UTC
Vent 2 kt amb direcció variable
Escasses núvols a una alçada de 1700 ft, Cumulonimbus.

TAF: WMKM 042300Z 0500/0600 15005KT 9999 FEW020 BECMG 0514/0516 VRB02KT FEW017CB

Observacions i pronòstics meteorològics de més de 4000 aeroports (METAR i TAF).

Les estacions disponibles són els punts grocs i vermells al mapa.

Posi el ratolí al punt desitjat per veure el nom de l'estació.

Feu clic per veure les observacions i els pronòstics meteorològics.

Per canviar el mapa: feu clic els botons verds amb una creu de color negre per apropar; al botó verd amb un guió per allunyar la imatge; o en les fletxes verdes per a mapes adjacents.


METAR-TAF: